Time;durP1;ratioP1;P1;durP2;ratioP2;P2;SDS_P1;SDS_P2;PMS_P1;PMS_P2;Temp;Humidity;BMP_temperature;BMP_pressure;BME280_temperature;BME280_humidity;BME280_pressure;Samples;Min_cycle;Max_cycle;Signal;HPM_P1;HPM_P2
2022/09/05 00:00:06;;;;;;;6.40;5.80;;;13.70;99.90;;;;;;5074087;28;20028;-83
2022/09/05 00:02:43;;;;;;;7.80;7.00;;;13.70;99.90;;;;;;5074200;28;20083;-82
2022/09/05 00:05:30;;;;;;;9.77;6.30;;;13.60;99.90;;;;;;5075411;28;20052;-75
2022/09/05 00:07:59;;;;;;;8.95;6.53;;;13.60;99.90;;;;;;5075456;28;20355;-75
2022/09/05 00:10:42;;;;;;;7.18;6.47;;;13.60;99.90;;;;;;5073959;28;20036;-82
2022/09/05 00:13:23;;;;;;;7.13;5.95;;;13.50;99.90;;;;;;5073485;28;20021;-74
2022/09/05 00:15:58;;;;;;;8.30;6.88;;;13.50;99.90;;;;;;5073856;28;20016;-74
2022/09/05 00:18:48;;;;;;;7.57;6.88;;;13.40;99.90;;;;;;5075209;28;20020;-75
2022/09/05 00:21:23;;;;;;;7.72;6.97;;;13.50;99.90;;;;;;5075269;28;20059;-82
2022/09/05 00:24:10;;;;;;;7.60;6.82;;;13.40;99.90;;;;;;5090861;28;20137;-74
2022/09/05 00:26:55;;;;;;;7.88;6.28;;;13.30;99.90;;;;;;5075093;28;20374;-82
2022/09/05 00:29:30;;;;;;;9.13;7.28;;;13.20;99.90;;;;;;5090339;28;20101;-77
2022/09/05 00:32:08;;;;;;;7.75;7.03;;;13.20;99.90;;;;;;5074996;28;20036;-82
2022/09/05 00:34:47;;;;;;;7.88;7.18;;;13.20;99.90;;;;;;5073498;28;20035;-83
2022/09/05 00:37:32;;;;;;;9.10;8.25;;;13.10;99.90;;;;;;5073582;28;20386;-82
2022/09/05 00:40:16;;;;;;;9.38;8.38;;;13.10;99.90;;;;;;5073606;28;20035;-82
2022/09/05 00:42:44;;;;;;;9.00;8.10;;;13.10;99.90;;;;;;5090288;28;20108;-75
2022/09/05 00:45:15;;;;;;;11.30;8.02;;;13.10;99.90;;;;;;5073298;28;20067;-74
2022/09/05 00:47:43;;;;;;;9.05;7.68;;;13.00;99.90;;;;;;5073382;28;20386;-82
2022/09/05 00:50:41;;;;;;;8.75;7.88;;;13.00;99.90;;;;;;5074441;28;20025;-74
2022/09/05 00:53:21;;;;;;;9.32;8.38;;;13.00;99.90;;;;;;5070573;28;20039;-82
2022/09/05 00:55:49;;;;;;;9.52;8.07;;;12.90;99.90;;;;;;5083816;28;20020;-82
2022/09/05 00:58:37;;;;;;;10.60;8.13;;;12.90;99.90;;;;;;5093306;28;20024;-82
2022/09/05 01:01:21;;;;;;;9.70;8.70;;;12.90;99.90;;;;;;5093273;28;20587;-82
2022/09/05 01:04:05;;;;;;;8.93;7.97;;;12.90;99.90;;;;;;5093178;28;20051;-82
2022/09/05 01:06:31;;;;;;;12.57;8.57;;;12.80;99.90;;;;;;5093379;28;20024;-82
2022/09/05 01:09:17;;;;;;;9.00;7.90;;;12.90;99.90;;;;;;5093189;28;20035;-82
2022/09/05 01:11:49;;;;;;;10.57;8.68;;;12.80;99.90;;;;;;5093177;28;20493;-74
2022/09/05 01:14:55;;;;;;;9.65;7.85;;;12.90;99.90;;;;;;5092941;28;20024;-82
2022/09/05 01:17:44;;;;;;;11.23;7.82;;;12.90;99.90;;;;;;5094469;28;20020;-82
2022/09/05 01:20:43;;;;;;;9.20;7.88;;;12.90;99.90;;;;;;5094088;28;20028;-74
2022/09/05 01:23:56;;;;;;;8.50;7.68;;;12.90;99.90;;;;;;5093337;28;20129;-74
2022/09/05 01:26:42;;;;;;;10.13;7.68;;;12.80;99.90;;;;;;5012147;28;20025;-82
2022/09/05 01:29:11;;;;;;;9.40;7.78;;;12.80;99.90;;;;;;5088418;28;20048;-82
2022/09/05 01:32:00;;;;;;;9.95;7.80;;;12.80;99.90;;;;;;5093918;28;20469;-74
2022/09/05 01:34:57;;;;;;;10.20;8.05;;;12.80;99.90;;;;;;5077672;28;20122;-82
2022/09/05 01:37:26;;;;;;;8.82;7.22;;;12.70;99.90;;;;;;5071103;28;20038;-74
2022/09/05 01:40:27;;;;;;;11.02;7.45;;;12.70;99.90;;;;;;5093690;28;20405;-82
2022/09/05 01:43:11;;;;;;;9.45;7.78;;;12.70;99.90;;;;;;5083514;28;20046;-74
2022/09/05 01:45:48;;;;;;;8.00;6.88;;;12.60;99.90;;;;;;5092416;28;20020;-74
2022/09/05 01:48:42;;;;;;;10.07;7.82;;;12.60;99.90;;;;;;5093767;28;20023;-74
2022/09/05 01:51:28;;;;;;;10.60;7.22;;;12.60;99.90;;;;;;5093761;28;20024;-82
2022/09/05 01:54:15;;;;;;;8.07;7.03;;;12.60;99.90;;;;;;5093718;28;20020;-74
2022/09/05 01:57:07;;;;;;;9.90;7.47;;;12.50;99.90;;;;;;5109274;28;20024;-82
2022/09/05 01:59:35;;;;;;;8.57;7.65;;;12.50;99.90;;;;;;5092451;28;20024;-82
2022/09/05 02:02:10;;;;;;;9.02;7.53;;;12.50;99.90;;;;;;5092146;28;20135;-74
2022/09/05 02:04:38;;;;;;;7.85;6.57;;;12.50;99.90;;;;;;5092245;28;20486;-74
2022/09/05 02:07:41;;;;;;;8.02;7.15;;;12.50;99.90;;;;;;5093541;28;20024;-82
2022/09/05 02:10:20;;;;;;;8.75;7.85;;;12.50;99.90;;;;;;5093409;28;20028;-74
2022/09/05 02:12:50;;;;;;;9.30;7.15;;;12.50;99.90;;;;;;5092249;28;20029;-74
2022/09/05 02:15:20;;;;;;;9.00;6.57;;;12.50;99.90;;;;;;5093333;28;20073;-74
2022/09/05 02:17:52;;;;;;;8.70;7.18;;;12.40;99.90;;;;;;5093967;28;20426;-82
2022/09/05 02:20:34;;;;;;;6.97;6.25;;;12.50;99.90;;;;;;5102963;28;20062;-82
2022/09/05 02:23:09;;;;;;;8.50;7.05;;;12.50;99.90;;;;;;5092207;28;20016;-74
2022/09/05 02:25:59;;;;;;;12.48;7.60;;;12.50;99.90;;;;;;5091989;28;20028;-82
2022/09/05 02:28:49;;;;;;;11.52;7.97;;;12.40;99.90;;;;;;5093337;28;20028;-82
2022/09/05 02:31:31;;;;;;;8.35;7.25;;;12.50;99.90;;;;;;5074975;28;20500;-74
2022/09/05 02:34:27;;;;;;;10.77;7.57;;;12.50;99.90;;;;;;5093234;28;20021;-82
2022/09/05 02:37:01;;;;;;;7.82;7.03;;;12.40;99.90;;;;;;5079099;28;20032;-74
2022/09/05 02:39:52;;;;;;;9.90;7.53;;;12.40;99.90;;;;;;5096098;28;20039;-82
2022/09/05 02:42:26;;;;;;;11.32;6.93;;;12.40;99.90;;;;;;5097233;28;20082;-82
2022/09/05 02:45:17;;;;;;;9.15;8.02;;;12.40;99.90;;;;;;5095976;28;20023;-82
2022/09/05 02:48:08;;;;;;;10.48;7.60;;;12.40;99.90;;;;;;5097075;28;20099;-82
2022/09/05 02:50:54;;;;;;;10.02;7.35;;;12.40;99.90;;;;;;5087980;28;20044;-74
2022/09/05 02:53:22;;;;;;;10.68;8.23;;;12.40;99.90;;;;;;5097190;28;20031;-74
2022/09/05 02:55:47;;;;;;;8.57;7.75;;;12.30;99.90;;;;;;5096886;28;20030;-82
2022/09/05 02:58:40;;;;;;;10.10;8.02;;;12.30;99.90;;;;;;5095612;28;20032;-75
2022/09/05 03:01:25;;;;;;;9.02;7.38;;;12.40;99.90;;;;;;5096871;28;20123;-74
2022/09/05 03:04:08;;;;;;;9.57;7.05;;;12.30;99.90;;;;;;5096698;28;20048;-82
2022/09/05 03:06:56;;;;;;;9.80;7.93;;;12.30;99.90;;;;;;5095761;28;20338;-74
2022/09/05 03:09:28;;;;;;;8.55;7.13;;;12.20;99.90;;;;;;5095567;28;20028;-82
2022/09/05 03:12:28;;;;;;;8.10;6.80;;;12.20;99.90;;;;;;5095445;28;20107;-82
2022/09/05 03:15:26;;;;;;;10.98;7.40;;;12.20;99.90;;;;;;5095402;28;20026;-82
2022/09/05 03:18:19;;;;;;;11.30;8.48;;;12.20;99.90;;;;;;5096612;28;20031;-82
2022/09/05 03:21:01;;;;;;;10.30;8.48;;;12.20;99.90;;;;;;5096412;28;20489;-82
2022/09/05 03:23:48;;;;;;;12.02;7.78;;;12.10;99.90;;;;;;5095188;28;20028;-74
2022/09/05 03:26:52;;;;;;;12.35;8.38;;;12.10;99.90;;;;;;5095178;28;20028;-82
2022/09/05 03:29:36;;;;;;;8.23;7.45;;;12.00;99.90;;;;;;5096478;28;20028;-82
2022/09/05 03:32:19;;;;;;;10.75;8.52;;;11.80;99.90;;;;;;5096251;28;20108;-74
2022/09/05 03:35:25;;;;;;;11.60;8.57;;;11.70;99.90;;;;;;5094975;28;20024;-74
2022/09/05 03:38:16;;;;;;;10.10;8.32;;;11.60;99.90;;;;;;5096200;28;20016;-74
2022/09/05 03:41:04;;;;;;;12.88;8.52;;;11.40;99.90;;;;;;5083323;28;20090;-74
2022/09/05 03:44:04;;;;;;;10.63;8.63;;;11.30;99.90;;;;;;5094726;28;20428;-82
2022/09/05 03:46:33;;;;;;;11.93;9.35;;;11.30;99.90;;;;;;5093571;28;20038;-81
2022/09/05 03:49:42;;;;;;;11.20;9.52;;;11.20;99.90;;;;;;5096019;28;20035;-74
2022/09/05 03:52:23;;;;;;;11.43;9.40;;;11.00;99.90;;;;;;5095920;28;20031;-74
2022/09/05 03:55:00;;;;;;;12.10;9.18;;;11.00;99.90;;;;;;5094577;28;20429;-75
2022/09/05 03:58:07;;;;;;;16.50;9.65;;;10.90;99.90;;;;;;5095821;28;20020;-82
2022/09/05 04:00:35;;;;;;;13.02;9.68;;;10.90;99.90;;;;;;5085044;28;20417;-81
2022/09/05 04:03:22;;;;;;;11.65;9.65;;;10.80;99.90;;;;;;5095607;28;20016;-82
2022/09/05 04:05:57;;;;;;;12.57;10.05;;;10.80;99.90;;;;;;5095694;28;20111;-74
2022/09/05 04:08:40;;;;;;;15.75;11.00;;;10.90;99.90;;;;;;5095598;28;20024;-74
2022/09/05 04:11:15;;;;;;;13.20;10.75;;;10.80;99.90;;;;;;5094384;28;20016;-74
2022/09/05 04:14:03;;;;;;;15.13;11.90;;;10.90;99.90;;;;;;5094216;28;20016;-82
2022/09/05 04:16:45;;;;;;;15.95;11.90;;;10.80;99.90;;;;;;5095581;28;20028;-74
2022/09/05 04:19:23;;;;;;;14.43;11.75;;;10.80;99.90;;;;;;5094278;28;20017;-82
2022/09/05 04:22:12;;;;;;;15.25;13.60;;;10.80;99.90;;;;;;5094102;28;20036;-74
2022/09/05 04:24:50;;;;;;;19.25;12.70;;;10.80;99.90;;;;;;5079401;28;20032;-74
2022/09/05 04:27:27;;;;;;;17.48;12.57;;;10.80;99.90;;;;;;5093960;28;20020;-82
2022/09/05 04:30:14;;;;;;;18.70;12.27;;;10.80;99.90;;;;;;5095248;28;20457;-82
2022/09/05 04:33:02;;;;;;;18.10;13.02;;;10.80;99.90;;;;;;5095237;28;20024;-82
2022/09/05 04:35:36;;;;;;;18.33;13.85;;;10.80;99.90;;;;;;5093845;28;20043;-74
2022/09/05 04:38:14;;;;;;;18.75;13.70;;;10.80;99.90;;;;;;5093626;28;20028;-74
2022/09/05 04:40:50;;;;;;;22.38;14.70;;;10.90;99.90;;;;;;5093679;28;20036;-82
2022/09/05 04:43:33;;;;;;;18.23;12.60;;;11.00;99.90;;;;;;5093521;28;20468;-82
2022/09/05 04:46:04;;;;;;;;;;;11.00;99.90;;;;;;5094021;28;20056;-74
2022/09/05 04:49:06;;;;;;;22.23;13.77;;;11.00;99.90;;;;;;5094698;28;19943;-82
2022/09/05 04:51:53;;;;;;;13.70;11.45;;;11.10;99.90;;;;;;5069581;28;20101;-82
2022/09/05 04:54:51;;;;;;;14.20;11.40;;;11.10;99.90;;;;;;5094692;28;20028;-82
2022/09/05 04:57:19;;;;;;;15.32;11.98;;;11.20;99.90;;;;;;5062901;28;20037;-74
2022/09/05 05:00:04;;;;;;;15.80;13.02;;;11.20;99.90;;;;;;5074241;28;20024;-82
2022/09/05 05:02:43;;;;;;;17.50;12.70;;;11.20;99.90;;;;;;5072981;28;20108;-82
2022/09/05 05:05:19;;;;;;;15.00;11.85;;;11.30;99.90;;;;;;5073965;28;20056;-74
2022/09/05 05:07:55;;;;;;;16.02;12.10;;;11.40;99.90;;;;;;5072888;28;20382;-74
2022/09/05 05:10:30;;;;;;;20.77;13.15;;;11.50;99.90;;;;;;5072859;28;20103;-82
2022/09/05 05:13:08;;;;;;;18.50;13.15;;;11.60;99.90;;;;;;5072617;28;20032;-81
2022/09/05 05:15:50;;;;;;;17.20;13.50;;;11.60;99.90;;;;;;5073011;28;20402;-82
2022/09/05 05:18:24;;;;;;;16.50;14.10;;;11.70;99.90;;;;;;5074022;28;20021;-82
2022/09/05 05:20:53;;;;;;;18.15;14.93;;;11.70;99.90;;;;;;5108910;28;20055;-74
2022/09/05 05:23:34;;;;;;;17.83;15.40;;;11.80;99.90;;;;;;5092967;28;20023;-74
2022/09/05 05:26:03;;;;;;;19.75;14.73;;;12.00;99.90;;;;;;5092933;28;20111;-82
2022/09/05 05:28:58;;;;;;;17.63;12.93;;;12.10;99.90;;;;;;5092815;28;20020;-74
2022/09/05 05:31:30;;;;;;;20.42;14.27;;;12.20;99.90;;;;;;5094345;28;20427;-74
2022/09/05 05:34:02;;;;;;;18.35;14.38;;;12.40;99.90;;;;;;5093911;28;20012;-74
2022/09/05 05:36:33;;;;;;;17.75;13.20;;;12.60;99.90;;;;;;5094152;28;20075;-82
2022/09/05 05:39:14;;;;;;;16.33;13.23;;;12.80;99.90;;;;;;5093884;28;20029;-82
2022/09/05 05:41:49;;;;;;;15.05;12.15;;;13.00;99.90;;;;;;5092418;28;20477;-82
2022/09/05 05:44:35;;;;;;;15.25;11.60;;;13.20;99.90;;;;;;5109509;28;20065;-83
2022/09/05 05:47:27;;;;;;;13.80;10.98;;;13.40;99.90;;;;;;5092476;28;20032;-83
2022/09/05 05:50:20;;;;;;;14.60;10.50;;;13.50;99.90;;;;;;5093705;28;20028;-75
2022/09/05 05:52:54;;;;;;;13.88;10.57;;;13.70;99.90;;;;;;5092515;28;20108;-83
2022/09/05 05:55:46;;;;;;;13.82;9.80;;;13.90;99.90;;;;;;5094138;28;20477;-83
2022/09/05 05:58:30;;;;;;;10.35;9.27;;;14.00;99.90;;;;;;5092188;28;20542;-83
2022/09/05 06:01:05;;;;;;;10.50;9.43;;;14.20;99.90;;;;;;5092224;28;20101;-75
2022/09/05 06:03:42;;;;;;;9.98;7.93;;;14.40;99.90;;;;;;5092134;28;20135;-83
2022/09/05 06:06:16;;;;;;;11.07;8.75;;;14.50;99.90;;;;;;5092307;28;20040;-75
2022/09/05 06:08:57;;;;;;;12.52;9.60;;;14.60;99.90;;;;;;5092026;28;20032;-82
2022/09/05 06:11:54;;;;;;;12.23;8.57;;;14.80;99.90;;;;;;5093301;28;20020;-75
2022/09/05 06:14:51;;;;;;;12.25;8.23;;;14.90;99.90;;;;;;5092030;28;20077;-83
2022/09/05 06:17:30;;;;;;;10.40;8.18;;;14.90;99.90;;;;;;5092232;28;20035;-75
2022/09/05 06:20:11;;;;;;;11.25;8.75;;;15.00;99.90;;;;;;5091883;28;20065;-83
2022/09/05 06:23:14;;;;;;;13.20;9.18;;;15.10;99.90;;;;;;5092135;28;20028;-75
2022/09/05 06:25:57;;;;;;;10.80;9.02;;;15.20;99.90;;;;;;5093377;28;20475;-76
2022/09/05 06:28:32;;;;;;;13.75;9.07;;;15.30;99.90;;;;;;5093430;28;20065;-75
2022/09/05 06:31:33;;;;;;;10.30;8.77;;;15.40;99.90;;;;;;5092009;28;20504;-75
2022/09/05 06:34:23;;;;;;;11.95;8.02;;;15.60;99.90;;;;;;5093254;28;20102;-75
2022/09/05 06:36:54;;;;;;;11.70;7.72;;;15.70;99.90;;;;;;5093292;28;20028;-84
2022/09/05 06:39:59;;;;;;;12.25;8.02;;;15.80;99.90;;;;;;5108979;28;20025;-75
2022/09/05 06:42:31;;;;;;;11.10;8.45;;;16.00;99.90;;;;;;5092068;28;20039;-76
2022/09/05 06:45:08;;;;;;;13.40;8.57;;;16.20;99.90;;;;;;5091808;28;20024;-75
2022/09/05 06:47:37;;;;;;;10.10;7.85;;;16.20;99.90;;;;;;5092789;28;20072;-75
2022/09/05 06:50:30;;;;;;;10.38;7.30;;;16.20;99.90;;;;;;5083157;28;20035;-76
2022/09/05 06:53:14;;;;;;;11.55;8.52;;;16.30;99.90;;;;;;5083807;28;20027;-83
2022/09/05 06:56:01;;;;;;;10.35;7.82;;;16.40;99.90;;;;;;5091659;28;20032;-83
2022/09/05 06:58:49;;;;;;;13.75;8.40;;;16.50;99.90;;;;;;5091747;28;20023;-84
2022/09/05 07:01:25;;;;;;;11.07;7.55;;;16.50;99.90;;;;;;5092848;28;20416;-75
2022/09/05 07:04:26;;;;;;;8.45;7.45;;;16.50;99.90;;;;;;5085981;28;20078;-83
2022/09/05 07:07:17;;;;;;;10.20;7.93;;;16.60;99.90;;;;;;5061905;28;20397;-76
2022/09/05 07:09:59;;;;;;;9.02;7.53;;;16.70;99.90;;;;;;5051289;28;20025;-76
2022/09/05 07:12:40;;;;;;;8.93;7.13;;;16.90;99.90;;;;;;5086778;28;20482;-84
2022/09/05 07:15:33;;;;;;;9.75;7.30;;;17.00;99.90;;;;;;5071262;28;20111;-76
2022/09/05 07:18:17;;;;;;;8.23;7.38;;;17.10;99.90;;;;;;5060326;28;20535;-76
2022/09/05 07:20:52;;;;;;;11.98;8.25;;;17.10;99.90;;;;;;5073079;28;20045;-84
2022/09/05 07:23:30;;;;;;;10.00;7.88;;;17.30;99.90;;;;;;5091721;28;20029;-85
2022/09/05 07:25:56;;;;;;;9.93;8.95;;;17.50;99.90;;;;;;5076148;28;20024;-76
2022/09/05 07:28:23;;;;;;;10.05;8.02;;;17.50;99.90;;;;;;5091676;28;20120;-84
2022/09/05 07:30:58;;;;;;;13.55;7.97;;;17.50;99.90;;;;;;5091656;28;20017;-84
2022/09/05 07:33:28;;;;;;;9.75;6.55;;;17.60;99.90;;;;;;5076008;28;20059;-76
2022/09/05 07:36:04;;;;;;;8.30;7.32;;;17.80;99.90;;;;;;5075913;28;20023;-76
2022/09/05 07:38:35;;;;;;;6.57;5.38;;;17.90;99.90;;;;;;5075975;28;20021;-76
2022/09/05 07:41:23;;;;;;;8.52;6.03;;;18.00;95.90;;;;;;5076098;28;20071;-83
2022/09/05 07:43:56;;;;;;;6.47;5.80;;;18.00;92.20;;;;;;5091549;28;20356;-76
2022/09/05 07:46:32;;;;;;;5.72;5.13;;;18.10;94.00;;;;;;5075654;28;20017;-84
2022/09/05 07:49:13;;;;;;;6.10;5.38;;;18.10;90.80;;;;;;5076114;28;20066;-76
2022/09/05 07:51:53;;;;;;;7.85;5.47;;;18.40;91.00;;;;;;5091352;28;20432;-84
2022/09/05 07:54:32;;;;;;;7.38;5.75;;;18.50;87.80;;;;;;5075932;28;20025;-85
2022/09/05 07:57:08;;;;;;;5.35;4.85;;;18.50;87.40;;;;;;5054229;28;20086;-76
2022/09/05 07:59:41;;;;;;;6.53;5.60;;;18.50;85.10;;;;;;5055584;28;20032;-85
2022/09/05 08:02:10;;;;;;;6.57;5.55;;;18.50;85.80;;;;;;5055449;28;20060;-84
2022/09/05 08:04:38;;;;;;;8.05;5.97;;;18.40;84.00;;;;;;5065912;28;20044;-78
2022/09/05 08:07:10;;;;;;;7.50;5.75;;;18.50;83.70;;;;;;5092297;28;20108;-85
2022/09/05 08:09:41;;;;;;;9.88;6.05;;;18.60;84.10;;;;;;5094298;28;20116;-76
2022/09/05 08:12:31;;;;;;;7.10;5.85;;;18.70;83.00;;;;;;5095697;28;20484;-85
2022/09/05 08:15:32;;;;;;;7.20;5.20;;;18.70;81.30;;;;;;5079923;28;20028;-85
2022/09/05 08:18:04;;;;;;;6.55;5.60;;;18.70;81.60;;;;;;5091327;28;20050;-85
2022/09/05 08:20:50;;;;;;;5.45;4.43;;;18.70;79.00;;;;;;5093982;28;20062;-84
2022/09/05 08:23:25;;;;;;;4.78;4.38;;;18.80;77.80;;;;;;5095400;28;20024;-77
2022/09/05 08:26:15;;;;;;;5.40;4.90;;;18.90;78.20;;;;;;5093942;28;20024;-85
2022/09/05 08:29:05;;;;;;;6.95;4.57;;;19.00;76.80;;;;;;5094044;28;20027;-77
2022/09/05 08:31:39;;;;;;;9.18;5.40;;;19.10;76.30;;;;;;5093968;28;20115;-85
2022/09/05 08:34:12;;;;;;;5.78;4.75;;;19.10;76.10;;;;;;5094851;28;20054;-77
2022/09/05 08:36:44;;;;;;;6.80;4.95;;;19.30;74.80;;;;;;5095146;28;20020;-84
2022/09/05 08:39:12;;;;;;;5.57;5.05;;;19.10;74.10;;;;;;5095104;28;20035;-85
2022/09/05 08:42:06;;;;;;;9.23;5.30;;;19.20;74.40;;;;;;5093757;28;20140;-77
2022/09/05 08:44:37;;;;;;;10.13;5.60;;;19.30;72.50;;;;;;5094958;28;20037;-76
2022/09/05 08:47:11;;;;;;;7.38;4.80;;;19.30;72.20;;;;;;5094845;28;20103;-77
2022/09/05 08:49:46;;;;;;;5.85;5.05;;;19.30;72.50;;;;;;5093616;28;20392;-77
2022/09/05 08:52:14;;;;;;;5.85;4.28;;;19.20;72.80;;;;;;5094758;28;20018;-85
2022/09/05 08:54:49;;;;;;;7.93;4.50;;;19.20;71.60;;;;;;5093332;28;20477;-76
2022/09/05 08:57:39;;;;;;;5.72;4.35;;;19.50;70.20;;;;;;5094583;28;20039;-85
2022/09/05 09:00:08;;;;;;;5.80;4.28;;;19.80;69.40;;;;;;5093319;28;20024;-85
2022/09/05 09:03:04;;;;;;;7.13;4.07;;;19.90;68.70;;;;;;5094508;28;20024;-76
2022/09/05 09:05:42;;;;;;;4.57;4.13;;;19.80;68.70;;;;;;5093331;28;20450;-85
2022/09/05 09:08:31;;;;;;;5.07;4.55;;;19.70;68.90;;;;;;5094481;28;20031;-78
2022/09/05 09:11:19;;;;;;;7.07;4.32;;;19.50;68.60;;;;;;5093094;28;20374;-85
2022/09/05 09:13:55;;;;;;;4.85;4.40;;;19.60;69.50;;;;;;5094214;28;20020;-76
2022/09/05 09:16:24;;;;;;;6.78;4.10;;;19.70;68.30;;;;;;5094243;28;20492;-85
2022/09/05 09:18:49;;;;;;;8.18;4.85;;;19.60;67.30;;;;;;5092641;28;20047;-76
2022/09/05 09:21:50;;;;;;;3.92;3.45;;;19.80;69.20;;;;;;5094210;28;20085;-76
2022/09/05 09:24:36;;;;;;;4.50;4.10;;;20.10;64.50;;;;;;5092731;28;20508;-85
2022/09/05 09:27:16;;;;;;;4.45;4.00;;;20.10;65.20;;;;;;5094141;28;20020;-76
2022/09/05 09:29:42;;;;;;;5.10;4.47;;;20.50;66.20;;;;;;5092890;28;20028;-86
2022/09/05 09:32:16;;;;;;;6.43;3.72;;;20.70;63.60;;;;;;5092640;28;20040;-77
2022/09/05 09:34:44;;;;;;;4.05;3.60;;;20.70;61.90;;;;;;5092748;28;20070;-86
2022/09/05 09:37:15;;;;;;;4.25;3.90;;;20.90;61.40;;;;;;5092429;28;20024;-86
2022/09/05 09:39:44;;;;;;;4.55;4.15;;;20.80;59.90;;;;;;5092766;28;20032;-77
2022/09/05 09:42:16;;;;;;;5.07;3.97;;;20.90;60.80;;;;;;5093672;28;20023;-84
2022/09/05 09:45:15;;;;;;;4.75;4.20;;;20.80;62.20;;;;;;5091759;28;20016;-77
2022/09/05 09:47:46;;;;;;;8.35;5.35;;;20.30;64.50;;;;;;5037935;28;20039;-77
2022/09/05 09:50:20;;;;;;;5.15;4.13;;;20.00;69.90;;;;;;5093759;28;20028;-77
2022/09/05 09:53:13;;;;;;;6.38;4.32;;;19.80;67.30;;;;;;5092347;28;20493;-77
2022/09/05 09:55:39;;;;;;;5.97;4.07;;;20.00;67.60;;;;;;5092308;28;20062;-86
2022/09/05 09:58:23;;;;;;;5.75;4.70;;;20.10;67.90;;;;;;5092276;28;20036;-85
2022/09/05 10:01:05;;;;;;;4.70;4.07;;;20.30;66.90;;;;;;5092207;28;20040;-86
2022/09/05 10:03:48;;;;;;;4.78;4.32;;;20.30;65.50;;;;;;5093312;28;20043;-76
2022/09/05 10:06:32;;;;;;;6.65;4.13;;;20.30;65.10;;;;;;5093479;28;20095;-85
2022/09/05 10:09:20;;;;;;;4.60;4.20;;;20.30;64.90;;;;;;5092000;28;20024;-76
2022/09/05 10:12:05;;;;;;;4.78;3.85;;;20.30;65.80;;;;;;5093541;28;20020;-77
2022/09/05 10:15:14;;;;;;;6.18;4.57;;;20.00;64.90;;;;;;5093163;28;20074;-86
2022/09/05 10:17:46;;;;;;;4.80;4.30;;;19.70;65.20;;;;;;5011504;28;20030;-85
2022/09/05 10:20:59;;;;;;;5.00;4.50;;;19.50;66.40;;;;;;5081414;28;20025;-77
2022/09/05 10:23:37;;;;;;;;;;;19.70;66.80;;;;;;5083763;28;20301;-87
2022/09/05 10:26:08;;;;;;;5.35;4.78;;;20.00;65.60;;;;;;5093365;28;19904;-86
2022/09/05 10:28:58;;;;;;;4.72;4.25;;;20.30;64.40;;;;;;5091879;28;20428;-85
2022/09/05 10:31:50;;;;;;;4.78;3.90;;;20.70;64.40;;;;;;5091938;28;20035;-77
2022/09/05 10:34:19;;;;;;;5.97;4.18;;;20.40;62.40;;;;;;5091778;28;20030;-77
2022/09/05 10:36:58;;;;;;;4.13;3.67;;;20.10;62.40;;;;;;5093189;28;20016;-85
2022/09/05 10:39:28;;;;;;;4.75;4.25;;;20.00;63.80;;;;;;5093181;28;20020;-77
2022/09/05 10:41:57;;;;;;;5.40;4.30;;;19.80;62.90;;;;;;5093186;28;20043;-85
2022/09/05 10:44:39;;;;;;;6.35;4.57;;;19.60;64.30;;;;;;5091704;28;20049;-86
2022/09/05 10:47:45;;;;;;;6.50;4.15;;;19.40;64.20;;;;;;5092223;28;20524;-85
2022/09/05 10:50:32;;;;;;;6.45;5.30;;;19.30;64.80;;;;;;5091765;28;20056;-86
2022/09/05 10:53:19;;;;;;;5.68;4.10;;;19.30;66.20;;;;;;5091668;28;20023;-85
2022/09/05 10:56:21;;;;;;;11.00;5.50;;;19.40;66.20;;;;;;5092647;28;20028;-86
2022/09/05 10:59:03;;;;;;;4.60;4.20;;;19.50;65.40;;;;;;5095626;28;20028;-77
2022/09/05 11:01:40;;;;;;;5.22;4.72;;;19.50;65.70;;;;;;5096891;28;20392;-76
2022/09/05 11:04:22;;;;;;;6.63;4.65;;;19.30;66.30;;;;;;5096776;28;20036;-85
2022/09/05 11:06:54;;;;;;;6.32;4.13;;;19.40;67.30;;;;;;5095580;28;20119;-76
2022/09/05 11:09:54;;;;;;;5.93;4.75;;;19.40;66.40;;;;;;5096653;28;20024;-86
2022/09/05 11:12:30;;;;;;;4.88;3.90;;;19.40;66.10;;;;;;5096759;28;20020;-85
2022/09/05 11:15:01;;;;;;;5.20;4.47;;;19.60;66.10;;;;;;5095453;28;20027;-85
2022/09/05 11:17:53;;;;;;;4.10;3.70;;;19.80;64.90;;;;;;5095306;28;20066;-76
2022/09/05 11:20:28;;;;;;;4.85;4.35;;;19.80;64.90;;;;;;5109108;28;20099;-86
2022/09/05 11:23:01;;;;;;;4.50;4.10;;;19.70;64.60;;;;;;5096496;28;20042;-85
2022/09/05 11:25:28;;;;;;;5.45;3.72;;;19.50;64.90;;;;;;5096391;28;20541;-85
2022/09/05 11:27:59;;;;;;;5.05;4.55;;;19.50;64.50;;;;;;5095023;28;20111;-85
2022/09/05 11:30:29;;;;;;;5.70;4.80;;;19.40;64.60;;;;;;5112059;28;20024;-76
2022/09/05 11:33:34;;;;;;;4.85;4.03;;;19.40;65.60;;;;;;5095061;28;20419;-77
2022/09/05 11:36:17;;;;;;;6.60;4.40;;;19.30;65.00;;;;;;5095027;28;20028;-76
2022/09/05 11:39:30;;;;;;;4.45;4.05;;;19.30;65.00;;;;;;5094830;28;20020;-76
2022/09/05 11:42:05;;;;;;;5.43;4.10;;;19.30;65.00;;;;;;5050187;28;20044;-85
2022/09/05 11:45:03;;;;;;;5.97;3.97;;;19.50;63.20;;;;;;5096035;28;20016;-76
2022/09/05 11:48:00;;;;;;;5.50;4.53;;;19.80;63.50;;;;;;5096005;28;20031;-76
2022/09/05 11:50:34;;;;;;;6.50;4.53;;;20.20;62.70;;;;;;5094600;28;20054;-86
2022/09/05 11:53:31;;;;;;;14.05;6.32;;;20.30;62.00;;;;;;5096019;28;20096;-85
2022/09/05 11:56:06;;;;;;;5.95;4.32;;;20.60;62.20;;;;;;5095819;28;20028;-76
2022/09/05 11:58:58;;;;;;;5.18;3.65;;;20.80;60.20;;;;;;5094533;28;20028;-85
2022/09/05 12:01:32;;;;;;;4.82;4.03;;;20.80;59.20;;;;;;5094543;28;20036;-86
2022/09/05 12:04:10;;;;;;;3.90;3.55;;;21.00;58.60;;;;;;5094381;28;20073;-77
2022/09/05 12:07:10;;;;;;;4.35;3.67;;;21.10;58.70;;;;;;5094372;28;20028;-86
2022/09/05 12:09:52;;;;;;;5.03;3.33;;;21.00;57.80;;;;;;5094142;28;20028;-77
2022/09/05 12:12:42;;;;;;;5.57;3.60;;;21.20;58.10;;;;;;5095685;28;20032;-77
2022/09/05 12:15:25;;;;;;;4.25;3.85;;;21.10;56.60;;;;;;5094100;28;20378;-86
2022/09/05 12:18:01;;;;;;;5.05;3.90;;;21.30;57.80;;;;;;5093986;28;20399;-77
2022/09/05 12:20:55;;;;;;;5.75;3.58;;;21.30;56.90;;;;;;5095057;28;20020;-77
2022/09/05 12:23:55;;;;;;;4.60;3.72;;;21.50;57.70;;;;;;5095525;28;20024;-77
2022/09/05 12:26:52;;;;;;;4.13;3.75;;;21.30;57.30;;;;;;5093999;28;20389;-77
2022/09/05 12:29:24;;;;;;;4.18;3.78;;;21.00;57.50;;;;;;5088136;28;20435;-86
2022/09/05 12:31:54;;;;;;;3.92;3.60;;;20.80;58.60;;;;;;5093767;28;20032;-86
2022/09/05 12:34:59;;;;;;;5.47;4.55;;;20.60;58.90;;;;;;5093808;28;20395;-76
2022/09/05 12:37:28;;;;;;;5.90;3.95;;;20.50;59.00;;;;;;5093683;28;20070;-86
2022/09/05 12:40:10;;;;;;;7.57;4.45;;;20.50;59.00;;;;;;5093520;28;20044;-86
2022/09/05 12:42:51;;;;;;;6.45;3.67;;;20.50;59.00;;;;;;5095004;28;20032;-87
2022/09/05 12:45:22;;;;;;;4.35;3.28;;;20.60;59.10;;;;;;5093641;28;20115;-77
2022/09/05 12:47:52;;;;;;;5.15;3.80;;;20.80;59.70;;;;;;5094788;28;20556;-78
2022/09/05 12:50:19;;;;;;;6.60;4.65;;;20.80;58.50;;;;;;5093182;28;20047;-77
2022/09/05 12:52:50;;;;;;;5.15;3.95;;;21.10;59.10;;;;;;5075816;28;20021;-78
2022/09/05 12:55:15;;;;;;;8.00;3.70;;;21.20;58.80;;;;;;5092074;28;20516;-77
2022/09/05 12:57:42;;;;;;;6.60;3.50;;;21.50;58.40;;;;;;5093292;28;20024;-78
2022/09/05 13:00:14;;;;;;;4.20;3.50;;;21.70;56.80;;;;;;5094312;28;20028;-87
2022/09/05 13:02:44;;;;;;;6.53;3.70;;;22.00;56.50;;;;;;5094661;28;20485;-78
2022/09/05 13:05:15;;;;;;;4.30;3.45;;;22.00;55.30;;;;;;5088821;28;20138;-78
2022/09/05 13:07:59;;;;;;;4.05;3.63;;;22.00;54.30;;;;;;5091205;28;20076;-78
2022/09/05 13:10:33;;;;;;;6.05;3.50;;;22.00;54.50;;;;;;5087033;28;20043;-78
2022/09/05 13:13:13;;;;;;;3.78;2.92;;;21.90;53.30;;;;;;5091274;28;20020;-87
2022/09/05 13:15:47;;;;;;;3.33;3.03;;;21.80;53.20;;;;;;5090420;28;20131;-87
2022/09/05 13:18:14;;;;;;;2.58;2.38;;;21.60;52.90;;;;;;5092923;28;20068;-87
2022/09/05 13:20:49;;;;;;;4.60;3.65;;;21.50;52.90;;;;;;5092346;28;20024;-78
2022/09/05 13:23:22;;;;;;;6.00;3.65;;;21.50;52.90;;;;;;5093204;28;20604;-78
2022/09/05 13:26:02;;;;;;;5.80;3.95;;;21.50;53.60;;;;;;5121214;27;20039;-79
2022/09/05 13:28:41;;;;;;;3.78;3.40;;;21.60;53.10;;;;;;5081574;28;20048;-78
2022/09/05 13:31:09;;;;;;;4.57;3.78;;;21.70;53.50;;;;;;5071850;28;20103;-79
2022/09/05 13:33:48;;;;;;;4.05;3.38;;;21.80;53.50;;;;;;5088081;28;20032;-78
2022/09/05 13:36:33;;;;;;;6.78;3.38;;;21.90;53.20;;;;;;5091126;28;20053;-78
2022/09/05 13:39:06;;;;;;;3.80;3.30;;;21.70;52.50;;;;;;5092285;28;20074;-79
2022/09/05 13:41:36;;;;;;;3.80;3.40;;;21.80;53.40;;;;;;5092676;28;20093;-79
2022/09/05 13:44:12;;;;;;;4.22;3.25;;;21.60;53.40;;;;;;5091108;28;20039;-79
2022/09/05 13:46:53;;;;;;;3.63;3.33;;;21.40;53.70;;;;;;5092959;28;20036;-78
2022/09/05 13:49:24;;;;;;;3.92;3.22;;;21.20;54.40;;;;;;5091889;28;20089;-78
2022/09/05 13:52:08;;;;;;;3.88;3.50;;;21.00;55.40;;;;;;5090407;28;20058;-78
2022/09/05 13:55:11;;;;;;;4.78;3.63;;;20.90;56.00;;;;;;5091358;28;20047;-78